sensor_id;sensor_type;location;lat;lon;timestamp;temperature;humidity
19110;DHT22;9687;50.836;12.060;2023-06-22T00:01:26;25.40;84.30
19110;DHT22;9687;50.836;12.060;2023-06-22T00:03:59;25.40;84.30
19110;DHT22;9687;50.836;12.060;2023-06-22T00:06:28;25.30;84.20
19110;DHT22;9687;50.836;12.060;2023-06-22T00:08:56;25.30;84.30
19110;DHT22;9687;50.836;12.060;2023-06-22T00:11:24;25.30;84.50
19110;DHT22;9687;50.836;12.060;2023-06-22T00:13:57;25.30;84.60
19110;DHT22;9687;50.836;12.060;2023-06-22T00:16:31;25.30;84.70
19110;DHT22;9687;50.836;12.060;2023-06-22T00:19:02;25.20;84.80
19110;DHT22;9687;50.836;12.060;2023-06-22T00:21:30;25.20;84.90
19110;DHT22;9687;50.836;12.060;2023-06-22T00:23:58;25.20;85.00
19110;DHT22;9687;50.836;12.060;2023-06-22T00:26:26;25.20;85.10
19110;DHT22;9687;50.836;12.060;2023-06-22T00:28:53;25.20;85.10
19110;DHT22;9687;50.836;12.060;2023-06-22T00:31:21;25.20;84.90
19110;DHT22;9687;50.836;12.060;2023-06-22T00:33:50;25.10;84.70
19110;DHT22;9687;50.836;12.060;2023-06-22T00:36:20;25.10;84.60
19110;DHT22;9687;50.836;12.060;2023-06-22T00:38:48;25.00;84.50
19110;DHT22;9687;50.836;12.060;2023-06-22T00:41:17;25.00;84.50
19110;DHT22;9687;50.836;12.060;2023-06-22T00:43:44;25.00;84.60
19110;DHT22;9687;50.836;12.060;2023-06-22T00:46:12;25.00;84.70
19110;DHT22;9687;50.836;12.060;2023-06-22T00:48:42;25.00;84.70
19110;DHT22;9687;50.836;12.060;2023-06-22T00:51:12;25.00;84.80
19110;DHT22;9687;50.836;12.060;2023-06-22T00:53:41;24.90;85.00
19110;DHT22;9687;50.836;12.060;2023-06-22T00:56:12;24.90;85.10
19110;DHT22;9687;50.836;12.060;2023-06-22T00:58:42;24.80;85.20
19110;DHT22;9687;50.836;12.060;2023-06-22T01:01:18;24.70;85.50
19110;DHT22;9687;50.836;12.060;2023-06-22T01:03:49;24.70;85.60
19110;DHT22;9687;50.836;12.060;2023-06-22T01:06:24;24.60;85.40
19110;DHT22;9687;50.836;12.060;2023-06-22T01:08:58;24.60;86.00
19110;DHT22;9687;50.836;12.060;2023-06-22T01:11:30;24.50;86.20
19110;DHT22;9687;50.836;12.060;2023-06-22T01:14:02;24.40;86.30
19110;DHT22;9687;50.836;12.060;2023-06-22T01:16:37;24.30;86.40
19110;DHT22;9687;50.836;12.060;2023-06-22T01:19:09;24.20;86.50
19110;DHT22;9687;50.836;12.060;2023-06-22T01:21:45;24.20;86.70
19110;DHT22;9687;50.836;12.060;2023-06-22T01:24:22;24.20;86.90
19110;DHT22;9687;50.836;12.060;2023-06-22T01:27:12;24.20;86.80
19110;DHT22;9687;50.836;12.060;2023-06-22T01:29:43;24.20;86.70
19110;DHT22;9687;50.836;12.060;2023-06-22T01:32:12;24.20;86.70
19110;DHT22;9687;50.836;12.060;2023-06-22T01:34:46;24.10;86.60
19110;DHT22;9687;50.836;12.060;2023-06-22T01:37:20;24.10;86.40
19110;DHT22;9687;50.836;12.060;2023-06-22T01:39:49;24.20;86.40
19110;DHT22;9687;50.836;12.060;2023-06-22T01:42:18;24.20;86.40
19110;DHT22;9687;50.836;12.060;2023-06-22T01:44:48;24.20;86.30
19110;DHT22;9687;50.836;12.060;2023-06-22T01:47:21;24.20;87.00
19110;DHT22;9687;50.836;12.060;2023-06-22T01:49:55;24.20;86.20
19110;DHT22;9687;50.836;12.060;2023-06-22T01:52:42;24.20;86.10
19110;DHT22;9687;50.836;12.060;2023-06-22T01:55:28;24.20;86.00
19110;DHT22;9687;50.836;12.060;2023-06-22T01:57:58;24.20;85.80
19110;DHT22;9687;50.836;12.060;2023-06-22T02:00:48;24.20;85.60
19110;DHT22;9687;50.836;12.060;2023-06-22T02:03:17;24.10;85.50
19110;DHT22;9687;50.836;12.060;2023-06-22T02:05:47;24.10;85.70
19110;DHT22;9687;50.836;12.060;2023-06-22T02:08:19;24.10;85.80
19110;DHT22;9687;50.836;12.060;2023-06-22T02:10:51;24.10;85.80
19110;DHT22;9687;50.836;12.060;2023-06-22T02:13:19;24.10;85.90
19110;DHT22;9687;50.836;12.060;2023-06-22T02:15:48;24.00;85.90
19110;DHT22;9687;50.836;12.060;2023-06-22T02:18:16;24.00;86.20
19110;DHT22;9687;50.836;12.060;2023-06-22T02:20:43;23.90;86.30
19110;DHT22;9687;50.836;12.060;2023-06-22T02:23:10;23.80;86.60
19110;DHT22;9687;50.836;12.060;2023-06-22T02:25:37;23.80;86.70
19110;DHT22;9687;50.836;12.060;2023-06-22T02:28:05;23.80;86.70
19110;DHT22;9687;50.836;12.060;2023-06-22T02:30:33;23.80;86.70
19110;DHT22;9687;50.836;12.060;2023-06-22T02:33:02;23.80;86.70
19110;DHT22;9687;50.836;12.060;2023-06-22T02:35:29;23.80;86.90
19110;DHT22;9687;50.836;12.060;2023-06-22T02:37:57;23.90;87.00
19110;DHT22;9687;50.836;12.060;2023-06-22T02:40:26;23.80;86.90
19110;DHT22;9687;50.836;12.060;2023-06-22T02:42:54;23.90;87.00
19110;DHT22;9687;50.836;12.060;2023-06-22T02:45:23;23.80;86.90
19110;DHT22;9687;50.836;12.060;2023-06-22T02:47:51;23.90;87.10
19110;DHT22;9687;50.836;12.060;2023-06-22T02:50:20;23.80;87.10
19110;DHT22;9687;50.836;12.060;2023-06-22T02:52:47;23.80;87.30
19110;DHT22;9687;50.836;12.060;2023-06-22T02:55:14;23.80;87.40
19110;DHT22;9687;50.836;12.060;2023-06-22T02:57:41;23.80;87.40
19110;DHT22;9687;50.836;12.060;2023-06-22T03:00:10;23.80;87.70
19110;DHT22;9687;50.836;12.060;2023-06-22T03:02:43;23.80;87.80
19110;DHT22;9687;50.836;12.060;2023-06-22T03:05:10;23.70;87.80
19110;DHT22;9687;50.836;12.060;2023-06-22T03:07:41;23.70;88.00
19110;DHT22;9687;50.836;12.060;2023-06-22T03:10:09;23.70;88.00
19110;DHT22;9687;50.836;12.060;2023-06-22T03:12:36;23.60;87.90
19110;DHT22;9687;50.836;12.060;2023-06-22T03:15:05;23.60;88.00
19110;DHT22;9687;50.836;12.060;2023-06-22T03:17:33;23.60;88.00
19110;DHT22;9687;50.836;12.060;2023-06-22T03:20:00;23.60;87.70
19110;DHT22;9687;50.836;12.060;2023-06-22T03:22:32;23.50;87.70
19110;DHT22;9687;50.836;12.060;2023-06-22T03:25:01;23.50;87.80
19110;DHT22;9687;50.836;12.060;2023-06-22T03:27:29;23.40;88.00
19110;DHT22;9687;50.836;12.060;2023-06-22T03:29:56;23.40;88.10
19110;DHT22;9687;50.836;12.060;2023-06-22T03:32:24;23.30;88.00
19110;DHT22;9687;50.836;12.060;2023-06-22T03:34:53;23.30;88.10
19110;DHT22;9687;50.836;12.060;2023-06-22T03:37:24;23.30;88.20
19110;DHT22;9687;50.836;12.060;2023-06-22T03:39:51;23.30;88.20
19110;DHT22;9687;50.836;12.060;2023-06-22T03:42:20;23.30;88.20
19110;DHT22;9687;50.836;12.060;2023-06-22T03:44:47;23.30;88.20
19110;DHT22;9687;50.836;12.060;2023-06-22T03:47:15;23.30;88.20
19110;DHT22;9687;50.836;12.060;2023-06-22T03:49:42;23.30;88.20
19110;DHT22;9687;50.836;12.060;2023-06-22T03:52:09;23.40;88.30
19110;DHT22;9687;50.836;12.060;2023-06-22T03:54:37;23.50;88.40
19110;DHT22;9687;50.836;12.060;2023-06-22T03:57:04;23.50;88.40
19110;DHT22;9687;50.836;12.060;2023-06-22T03:59:33;23.60;88.60
19110;DHT22;9687;50.836;12.060;2023-06-22T04:02:01;23.60;88.60
19110;DHT22;9687;50.836;12.060;2023-06-22T04:04:28;23.70;88.70
19110;DHT22;9687;50.836;12.060;2023-06-22T04:06:55;23.70;89.10
19110;DHT22;9687;50.836;12.060;2023-06-22T04:09:23;23.80;89.30
19110;DHT22;9687;50.836;12.060;2023-06-22T04:11:50;23.80;89.40
19110;DHT22;9687;50.836;12.060;2023-06-22T04:14:17;23.80;89.50
19110;DHT22;9687;50.836;12.060;2023-06-22T04:16:46;23.80;89.60
19110;DHT22;9687;50.836;12.060;2023-06-22T04:19:13;23.80;89.90
19110;DHT22;9687;50.836;12.060;2023-06-22T04:21:42;23.70;89.60
19110;DHT22;9687;50.836;12.060;2023-06-22T04:24:10;23.60;89.20
19110;DHT22;9687;50.836;12.060;2023-06-22T04:26:37;23.50;89.20
19110;DHT22;9687;50.836;12.060;2023-06-22T04:29:07;23.30;89.00
19110;DHT22;9687;50.836;12.060;2023-06-22T04:31:34;23.20;89.10
19110;DHT22;9687;50.836;12.060;2023-06-22T04:34:04;23.10;89.50
19110;DHT22;9687;50.836;12.060;2023-06-22T04:36:36;23.10;89.50
19110;DHT22;9687;50.836;12.060;2023-06-22T04:39:05;23.00;89.90
19110;DHT22;9687;50.836;12.060;2023-06-22T04:41:32;23.00;90.20
19110;DHT22;9687;50.836;12.060;2023-06-22T04:44:09;23.00;90.30
19110;DHT22;9687;50.836;12.060;2023-06-22T04:46:36;23.00;90.60
19110;DHT22;9687;50.836;12.060;2023-06-22T04:49:06;23.00;90.70
19110;DHT22;9687;50.836;12.060;2023-06-22T04:51:37;23.00;90.90
19110;DHT22;9687;50.836;12.060;2023-06-22T04:54:04;23.00;91.10
19110;DHT22;9687;50.836;12.060;2023-06-22T04:56:32;22.90;91.20
19110;DHT22;9687;50.836;12.060;2023-06-22T04:59:00;22.80;91.20
19110;DHT22;9687;50.836;12.060;2023-06-22T05:01:28;22.80;91.30
19110;DHT22;9687;50.836;12.060;2023-06-22T05:03:57;22.90;91.40
19110;DHT22;9687;50.836;12.060;2023-06-22T05:06:28;23.00;91.40
19110;DHT22;9687;50.836;12.060;2023-06-22T05:08:56;23.00;91.30
19110;DHT22;9687;50.836;12.060;2023-06-22T05:11:24;23.10;91.30
19110;DHT22;9687;50.836;12.060;2023-06-22T05:13:52;23.20;91.30
19110;DHT22;9687;50.836;12.060;2023-06-22T05:16:19;23.30;91.30
19110;DHT22;9687;50.836;12.060;2023-06-22T05:18:53;23.30;91.20
19110;DHT22;9687;50.836;12.060;2023-06-22T05:21:24;23.40;91.10
19110;DHT22;9687;50.836;12.060;2023-06-22T05:23:53;23.40;91.10
19110;DHT22;9687;50.836;12.060;2023-06-22T05:26:21;23.50;91.00
19110;DHT22;9687;50.836;12.060;2023-06-22T05:28:48;23.60;91.00
19110;DHT22;9687;50.836;12.060;2023-06-22T05:31:15;23.70;91.00
19110;DHT22;9687;50.836;12.060;2023-06-22T05:33:43;23.80;91.00
19110;DHT22;9687;50.836;12.060;2023-06-22T05:36:11;23.80;90.90
19110;DHT22;9687;50.836;12.060;2023-06-22T05:38:38;23.90;90.90
19110;DHT22;9687;50.836;12.060;2023-06-22T05:41:07;24.00;90.90
19110;DHT22;9687;50.836;12.060;2023-06-22T05:43:34;24.00;90.90
19110;DHT22;9687;50.836;12.060;2023-06-22T05:46:03;24.00;90.80
19110;DHT22;9687;50.836;12.060;2023-06-22T05:48:30;24.10;90.80
19110;DHT22;9687;50.836;12.060;2023-06-22T05:50:58;24.20;90.90
19110;DHT22;9687;50.836;12.060;2023-06-22T05:53:26;24.20;90.80
19110;DHT22;9687;50.836;12.060;2023-06-22T05:55:53;24.20;90.80
19110;DHT22;9687;50.836;12.060;2023-06-22T05:58:22;24.30;90.80
19110;DHT22;9687;50.836;12.060;2023-06-22T06:00:49;24.30;90.80
19110;DHT22;9687;50.836;12.060;2023-06-22T06:03:16;24.30;90.80
19110;DHT22;9687;50.836;12.060;2023-06-22T06:05:44;24.30;90.90
19110;DHT22;9687;50.836;12.060;2023-06-22T06:08:11;24.30;91.00
19110;DHT22;9687;50.836;12.060;2023-06-22T06:10:39;24.30;91.10
19110;DHT22;9687;50.836;12.060;2023-06-22T06:13:06;24.30;91.10
19110;DHT22;9687;50.836;12.060;2023-06-22T06:15:38;24.40;91.10
19110;DHT22;9687;50.836;12.060;2023-06-22T06:18:06;24.40;91.10
19110;DHT22;9687;50.836;12.060;2023-06-22T06:20:33;24.50;91.10
19110;DHT22;9687;50.836;12.060;2023-06-22T06:23:01;24.60;91.10
19110;DHT22;9687;50.836;12.060;2023-06-22T06:25:28;24.60;91.00
19110;DHT22;9687;50.836;12.060;2023-06-22T06:27:55;24.70;91.00
19110;DHT22;9687;50.836;12.060;2023-06-22T06:30:23;24.70;90.90
19110;DHT22;9687;50.836;12.060;2023-06-22T06:32:51;24.80;90.90
19110;DHT22;9687;50.836;12.060;2023-06-22T06:35:18;24.90;90.80
19110;DHT22;9687;50.836;12.060;2023-06-22T06:37:48;24.90;90.70
19110;DHT22;9687;50.836;12.060;2023-06-22T06:40:15;25.00;90.60
19110;DHT22;9687;50.836;12.060;2023-06-22T06:42:43;25.00;90.60
19110;DHT22;9687;50.836;12.060;2023-06-22T06:45:11;25.00;90.50
19110;DHT22;9687;50.836;12.060;2023-06-22T06:47:39;25.10;90.50
19110;DHT22;9687;50.836;12.060;2023-06-22T06:50:08;25.10;90.50
19110;DHT22;9687;50.836;12.060;2023-06-22T06:52:35;25.10;90.50
19110;DHT22;9687;50.836;12.060;2023-06-22T06:55:03;25.10;90.40
19110;DHT22;9687;50.836;12.060;2023-06-22T06:57:34;25.30;90.40
19110;DHT22;9687;50.836;12.060;2023-06-22T07:00:03;25.30;90.40
19110;DHT22;9687;50.836;12.060;2023-06-22T07:02:37;25.40;90.40
19110;DHT22;9687;50.836;12.060;2023-06-22T07:05:05;25.40;90.30
19110;DHT22;9687;50.836;12.060;2023-06-22T07:07:34;25.50;90.20
19110;DHT22;9687;50.836;12.060;2023-06-22T07:10:02;25.50;90.00
19110;DHT22;9687;50.836;12.060;2023-06-22T07:12:30;25.60;89.90
19110;DHT22;9687;50.836;12.060;2023-06-22T07:15:00;25.60;89.50
19110;DHT22;9687;50.836;12.060;2023-06-22T07:17:27;25.70;89.40
19110;DHT22;9687;50.836;12.060;2023-06-22T07:19:55;25.70;89.30
19110;DHT22;9687;50.836;12.060;2023-06-22T07:22:22;25.70;88.90
19110;DHT22;9687;50.836;12.060;2023-06-22T07:24:51;25.80;88.80
19110;DHT22;9687;50.836;12.060;2023-06-22T07:27:18;25.90;88.50
19110;DHT22;9687;50.836;12.060;2023-06-22T07:29:45;25.90;88.20
19110;DHT22;9687;50.836;12.060;2023-06-22T07:32:13;26.00;88.10
19110;DHT22;9687;50.836;12.060;2023-06-22T07:34:40;26.00;88.00
19110;DHT22;9687;50.836;12.060;2023-06-22T07:37:08;26.10;88.10
19110;DHT22;9687;50.836;12.060;2023-06-22T07:39:35;26.20;87.80
19110;DHT22;9687;50.836;12.060;2023-06-22T07:42:05;26.30;87.60
19110;DHT22;9687;50.836;12.060;2023-06-22T07:44:32;26.40;87.70
19110;DHT22;9687;50.836;12.060;2023-06-22T07:46:59;26.40;87.10
19110;DHT22;9687;50.836;12.060;2023-06-22T07:49:27;26.50;87.10
19110;DHT22;9687;50.836;12.060;2023-06-22T07:51:55;26.60;87.20
19110;DHT22;9687;50.836;12.060;2023-06-22T07:54:22;26.60;86.30
19110;DHT22;9687;50.836;12.060;2023-06-22T07:56:49;26.70;85.90
19110;DHT22;9687;50.836;12.060;2023-06-22T07:59:18;26.80;85.40
19110;DHT22;9687;50.836;12.060;2023-06-22T08:01:46;26.80;84.60
19110;DHT22;9687;50.836;12.060;2023-06-22T08:04:14;26.90;84.20
19110;DHT22;9687;50.836;12.060;2023-06-22T08:06:42;26.90;83.60
19110;DHT22;9687;50.836;12.060;2023-06-22T08:09:10;26.90;83.20
19110;DHT22;9687;50.836;12.060;2023-06-22T08:11:38;27.00;82.60
19110;DHT22;9687;50.836;12.060;2023-06-22T08:14:07;27.00;81.80
19110;DHT22;9687;50.836;12.060;2023-06-22T08:16:41;27.10;81.70
19110;DHT22;9687;50.836;12.060;2023-06-22T08:19:12;27.20;81.20
19110;DHT22;9687;50.836;12.060;2023-06-22T08:21:42;27.20;80.10
19110;DHT22;9687;50.836;12.060;2023-06-22T08:24:13;27.30;78.30
19110;DHT22;9687;50.836;12.060;2023-06-22T08:26:40;27.30;78.50
19110;DHT22;9687;50.836;12.060;2023-06-22T08:29:09;27.30;78.60
19110;DHT22;9687;50.836;12.060;2023-06-22T08:31:39;27.40;78.20
19110;DHT22;9687;50.836;12.060;2023-06-22T08:34:09;27.50;77.60
19110;DHT22;9687;50.836;12.060;2023-06-22T08:36:36;27.50;77.20
19110;DHT22;9687;50.836;12.060;2023-06-22T08:39:07;27.60;76.80
19110;DHT22;9687;50.836;12.060;2023-06-22T08:41:35;27.60;76.50
19110;DHT22;9687;50.836;12.060;2023-06-22T08:44:11;27.70;76.60
19110;DHT22;9687;50.836;12.060;2023-06-22T08:46:41;27.80;76.10
19110;DHT22;9687;50.836;12.060;2023-06-22T08:49:13;27.80;75.20
19110;DHT22;9687;50.836;12.060;2023-06-22T08:51:44;27.90;75.10
19110;DHT22;9687;50.836;12.060;2023-06-22T08:54:14;28.00;74.60
19110;DHT22;9687;50.836;12.060;2023-06-22T08:56:42;28.00;74.50
19110;DHT22;9687;50.836;12.060;2023-06-22T08:59:28;28.10;74.40
19110;DHT22;9687;50.836;12.060;2023-06-22T09:02:10;28.10;74.60
19110;DHT22;9687;50.836;12.060;2023-06-22T09:04:37;28.30;74.20
19110;DHT22;9687;50.836;12.060;2023-06-22T09:07:05;28.30;73.20
19110;DHT22;9687;50.836;12.060;2023-06-22T09:09:33;28.40;72.80
19110;DHT22;9687;50.836;12.060;2023-06-22T09:12:05;28.40;72.30
19110;DHT22;9687;50.836;12.060;2023-06-22T09:14:34;28.50;72.70
19110;DHT22;9687;50.836;12.060;2023-06-22T09:17:04;28.50;72.60
19110;DHT22;9687;50.836;12.060;2023-06-22T09:19:35;28.70;72.50
19110;DHT22;9687;50.836;12.060;2023-06-22T09:22:02;28.70;72.40
19110;DHT22;9687;50.836;12.060;2023-06-22T09:24:31;28.80;72.30
19110;DHT22;9687;50.836;12.060;2023-06-22T09:26:59;28.90;71.90
19110;DHT22;9687;50.836;12.060;2023-06-22T09:29:26;29.00;72.00
19110;DHT22;9687;50.836;12.060;2023-06-22T09:31:54;29.10;72.20
19110;DHT22;9687;50.836;12.060;2023-06-22T09:34:21;29.20;71.90
19110;DHT22;9687;50.836;12.060;2023-06-22T09:36:55;29.30;71.50
19110;DHT22;9687;50.836;12.060;2023-06-22T09:39:23;29.50;71.20
19110;DHT22;9687;50.836;12.060;2023-06-22T09:41:50;29.70;71.10
19110;DHT22;9687;50.836;12.060;2023-06-22T09:44:19;29.90;71.30
19110;DHT22;9687;50.836;12.060;2023-06-22T09:46:47;30.30;70.80
19110;DHT22;9687;50.836;12.060;2023-06-22T09:49:16;30.60;70.10
19110;DHT22;9687;50.836;12.060;2023-06-22T09:51:45;31.10;68.30
19110;DHT22;9687;50.836;12.060;2023-06-22T09:54:16;31.50;67.20
19110;DHT22;9687;50.836;12.060;2023-06-22T09:56:46;32.10;65.20
19110;DHT22;9687;50.836;12.060;2023-06-22T09:59:13;32.70;63.20
19110;DHT22;9687;50.836;12.060;2023-06-22T10:01:41;33.30;62.20
19110;DHT22;9687;50.836;12.060;2023-06-22T10:04:09;33.80;60.80
19110;DHT22;9687;50.836;12.060;2023-06-22T10:06:37;34.40;59.20
19110;DHT22;9687;50.836;12.060;2023-06-22T10:09:08;34.90;58.00
19110;DHT22;9687;50.836;12.060;2023-06-22T10:11:37;35.40;56.50
19110;DHT22;9687;50.836;12.060;2023-06-22T10:14:04;35.80;55.00
19110;DHT22;9687;50.836;12.060;2023-06-22T10:16:32;36.20;54.20
19110;DHT22;9687;50.836;12.060;2023-06-22T10:19:01;36.40;53.20
19110;DHT22;9687;50.836;12.060;2023-06-22T10:21:32;36.30;52.60
19110;DHT22;9687;50.836;12.060;2023-06-22T10:24:03;36.40;52.40
19110;DHT22;9687;50.836;12.060;2023-06-22T10:26:33;36.50;51.90
19110;DHT22;9687;50.836;12.060;2023-06-22T10:29:03;36.80;51.50
19110;DHT22;9687;50.836;12.060;2023-06-22T10:31:30;37.00;50.70
19110;DHT22;9687;50.836;12.060;2023-06-22T10:34:00;36.90;50.60
19110;DHT22;9687;50.836;12.060;2023-06-22T10:36:30;36.90;50.90
19110;DHT22;9687;50.836;12.060;2023-06-22T10:38:59;37.20;50.60
19110;DHT22;9687;50.836;12.060;2023-06-22T10:41:28;37.60;50.60
19110;DHT22;9687;50.836;12.060;2023-06-22T10:43:56;38.00;49.90
19110;DHT22;9687;50.836;12.060;2023-06-22T10:46:28;38.30;49.30
19110;DHT22;9687;50.836;12.060;2023-06-22T10:48:56;38.70;48.90
19110;DHT22;9687;50.836;12.060;2023-06-22T10:51:24;39.00;48.30
19110;DHT22;9687;50.836;12.060;2023-06-22T10:53:53;39.20;47.70
19110;DHT22;9687;50.836;12.060;2023-06-22T10:56:21;39.40;46.80
19110;DHT22;9687;50.836;12.060;2023-06-22T10:58:48;39.60;46.30
19110;DHT22;9687;50.836;12.060;2023-06-22T11:01:16;39.80;46.00
19110;DHT22;9687;50.836;12.060;2023-06-22T11:03:45;39.90;45.90
19110;DHT22;9687;50.836;12.060;2023-06-22T11:06:12;40.00;45.30
19110;DHT22;9687;50.836;12.060;2023-06-22T11:08:43;40.10;44.60
19110;DHT22;9687;50.836;12.060;2023-06-22T11:11:10;39.80;43.90
19110;DHT22;9687;50.836;12.060;2023-06-22T11:13:39;39.30;44.30
19110;DHT22;9687;50.836;12.060;2023-06-22T11:16:07;38.90;44.90
19110;DHT22;9687;50.836;12.060;2023-06-22T11:18:35;38.80;45.20
19110;DHT22;9687;50.836;12.060;2023-06-22T11:21:04;38.40;44.90
19110;DHT22;9687;50.836;12.060;2023-06-22T11:23:31;38.10;45.70
19110;DHT22;9687;50.836;12.060;2023-06-22T11:25:59;38.10;45.70
19110;DHT22;9687;50.836;12.060;2023-06-22T11:28:26;38.10;45.40
19110;DHT22;9687;50.836;12.060;2023-06-22T11:30:54;38.00;45.40
19110;DHT22;9687;50.836;12.060;2023-06-22T11:33:21;38.00;45.50
19110;DHT22;9687;50.836;12.060;2023-06-22T11:35:48;37.90;45.50
19110;DHT22;9687;50.836;12.060;2023-06-22T11:38:17;37.90;45.50
19110;DHT22;9687;50.836;12.060;2023-06-22T11:40:44;38.00;45.40
19110;DHT22;9687;50.836;12.060;2023-06-22T11:43:11;38.10;45.40
19110;DHT22;9687;50.836;12.060;2023-06-22T11:45:41;38.20;45.40
19110;DHT22;9687;50.836;12.060;2023-06-22T11:48:08;38.20;44.90
19110;DHT22;9687;50.836;12.060;2023-06-22T11:50:35;38.10;44.70
19110;DHT22;9687;50.836;12.060;2023-06-22T11:53:04;38.00;44.70
19110;DHT22;9687;50.836;12.060;2023-06-22T11:55:40;37.90;44.80
19110;DHT22;9687;50.836;12.060;2023-06-22T11:58:08;37.80;45.00
19110;DHT22;9687;50.836;12.060;2023-06-22T12:00:35;37.50;45.10
19110;DHT22;9687;50.836;12.060;2023-06-22T12:03:05;37.20;45.00
19110;DHT22;9687;50.836;12.060;2023-06-22T12:05:33;36.90;45.40
19110;DHT22;9687;50.836;12.060;2023-06-22T12:08:01;36.60;45.90
19110;DHT22;9687;50.836;12.060;2023-06-22T12:10:30;36.20;46.40
19110;DHT22;9687;50.836;12.060;2023-06-22T12:13:04;35.90;47.10
19110;DHT22;9687;50.836;12.060;2023-06-22T12:15:40;35.70;47.20
19110;DHT22;9687;50.836;12.060;2023-06-22T12:18:13;35.40;47.70
19110;DHT22;9687;50.836;12.060;2023-06-22T12:20:40;35.10;48.30
19110;DHT22;9687;50.836;12.060;2023-06-22T12:23:11;34.90;48.40
19110;DHT22;9687;50.836;12.060;2023-06-22T12:25:38;34.60;48.60
19110;DHT22;9687;50.836;12.060;2023-06-22T12:28:08;34.50;48.80
19110;DHT22;9687;50.836;12.060;2023-06-22T12:30:37;34.30;49.00
19110;DHT22;9687;50.836;12.060;2023-06-22T12:33:08;34.10;49.50
19110;DHT22;9687;50.836;12.060;2023-06-22T12:35:36;34.00;49.90
19110;DHT22;9687;50.836;12.060;2023-06-22T12:38:05;33.80;50.20
19110;DHT22;9687;50.836;12.060;2023-06-22T12:40:35;33.70;50.40
19110;DHT22;9687;50.836;12.060;2023-06-22T12:44:04;33.50;50.60
19110;DHT22;9687;50.836;12.060;2023-06-22T12:46:31;33.40;50.70
19110;DHT22;9687;50.836;12.060;2023-06-22T12:49:03;33.30;51.20
19110;DHT22;9687;50.836;12.060;2023-06-22T12:51:30;33.30;51.20
19110;DHT22;9687;50.836;12.060;2023-06-22T12:54:01;33.20;51.30
19110;DHT22;9687;50.836;12.060;2023-06-22T12:56:33;33.10;51.40
19110;DHT22;9687;50.836;12.060;2023-06-22T12:59:00;33.00;51.50
19110;DHT22;9687;50.836;12.060;2023-06-22T13:01:30;32.90;51.90
19110;DHT22;9687;50.836;12.060;2023-06-22T13:04:01;32.90;52.10
19110;DHT22;9687;50.836;12.060;2023-06-22T13:06:30;32.80;52.10
19110;DHT22;9687;50.836;12.060;2023-06-22T13:08:57;32.90;52.30
19110;DHT22;9687;50.836;12.060;2023-06-22T13:11:26;32.80;52.20
19110;DHT22;9687;50.836;12.060;2023-06-22T13:13:55;32.80;52.30
19110;DHT22;9687;50.836;12.060;2023-06-22T13:16:24;32.70;52.40
19110;DHT22;9687;50.836;12.060;2023-06-22T13:18:53;32.70;52.30
19110;DHT22;9687;50.836;12.060;2023-06-22T13:21:21;32.70;52.30
19110;DHT22;9687;50.836;12.060;2023-06-22T13:23:53;32.70;52.40
19110;DHT22;9687;50.836;12.060;2023-06-22T13:26:21;32.60;52.50
19110;DHT22;9687;50.836;12.060;2023-06-22T13:28:48;32.70;52.70
19110;DHT22;9687;50.836;12.060;2023-06-22T13:31:20;32.60;52.80
19110;DHT22;9687;50.836;12.060;2023-06-22T13:33:50;32.60;52.90
19110;DHT22;9687;50.836;12.060;2023-06-22T13:36:22;32.60;52.90
19110;DHT22;9687;50.836;12.060;2023-06-22T13:38:52;32.60;52.90
19110;DHT22;9687;50.836;12.060;2023-06-22T13:41:21;32.60;52.90
19110;DHT22;9687;50.836;12.060;2023-06-22T13:43:48;32.50;52.90
19110;DHT22;9687;50.836;12.060;2023-06-22T13:46:17;32.50;53.10
19110;DHT22;9687;50.836;12.060;2023-06-22T13:48:47;32.50;53.10
19110;DHT22;9687;50.836;12.060;2023-06-22T13:51:16;32.50;53.10
19110;DHT22;9687;50.836;12.060;2023-06-22T13:53:50;32.50;53.20
19110;DHT22;9687;50.836;12.060;2023-06-22T13:56:20;32.50;53.30
19110;DHT22;9687;50.836;12.060;2023-06-22T13:58:47;32.50;53.30
19110;DHT22;9687;50.836;12.060;2023-06-22T14:01:16;32.50;53.40
19110;DHT22;9687;50.836;12.060;2023-06-22T14:03:47;32.50;53.50
19110;DHT22;9687;50.836;12.060;2023-06-22T14:06:16;32.50;53.80
19110;DHT22;9687;50.836;12.060;2023-06-22T14:08:48;32.40;53.90
19110;DHT22;9687;50.836;12.060;2023-06-22T14:11:20;32.40;53.90
19110;DHT22;9687;50.836;12.060;2023-06-22T14:13:47;32.50;54.10
19110;DHT22;9687;50.836;12.060;2023-06-22T14:16:16;32.40;54.30
19110;DHT22;9687;50.836;12.060;2023-06-22T14:18:45;32.40;54.30
19110;DHT22;9687;50.836;12.060;2023-06-22T14:21:15;32.40;54.50
19110;DHT22;9687;50.836;12.060;2023-06-22T14:23:43;32.50;54.70
19110;DHT22;9687;50.836;12.060;2023-06-22T14:26:17;32.50;54.80
19110;DHT22;9687;50.836;12.060;2023-06-22T14:28:45;32.50;55.60
19110;DHT22;9687;50.836;12.060;2023-06-22T14:31:18;32.50;54.80
19110;DHT22;9687;50.836;12.060;2023-06-22T14:33:46;32.50;54.80
19110;DHT22;9687;50.836;12.060;2023-06-22T14:36:14;32.50;54.80
19110;DHT22;9687;50.836;12.060;2023-06-22T14:38:42;32.60;55.00
19110;DHT22;9687;50.836;12.060;2023-06-22T14:41:10;32.60;55.10
19110;DHT22;9687;50.836;12.060;2023-06-22T14:43:49;32.60;55.00
19110;DHT22;9687;50.836;12.060;2023-06-22T14:46:18;32.60;55.20
19110;DHT22;9687;50.836;12.060;2023-06-22T14:48:46;32.60;55.20
19110;DHT22;9687;50.836;12.060;2023-06-22T14:51:13;32.60;55.30
19110;DHT22;9687;50.836;12.060;2023-06-22T14:53:41;32.60;55.30
19110;DHT22;9687;50.836;12.060;2023-06-22T14:56:08;32.60;55.40
19110;DHT22;9687;50.836;12.060;2023-06-22T14:58:36;32.50;55.40
19110;DHT22;9687;50.836;12.060;2023-06-22T15:01:08;32.50;55.30
19110;DHT22;9687;50.836;12.060;2023-06-22T15:03:37;32.50;55.30
19110;DHT22;9687;50.836;12.060;2023-06-22T15:06:08;32.50;55.30
19110;DHT22;9687;50.836;12.060;2023-06-22T15:08:37;32.50;55.40
19110;DHT22;9687;50.836;12.060;2023-06-22T15:11:08;32.50;55.60
19110;DHT22;9687;50.836;12.060;2023-06-22T15:13:41;32.60;55.70
19110;DHT22;9687;50.836;12.060;2023-06-22T15:16:10;32.50;55.70
19110;DHT22;9687;50.836;12.060;2023-06-22T15:18:38;32.60;55.70
19110;DHT22;9687;50.836;12.060;2023-06-22T15:21:08;32.60;55.70
19110;DHT22;9687;50.836;12.060;2023-06-22T15:23:35;32.60;55.70
19110;DHT22;9687;50.836;12.060;2023-06-22T15:26:03;32.60;55.70
19110;DHT22;9687;50.836;12.060;2023-06-22T15:28:32;32.60;55.70
19110;DHT22;9687;50.836;12.060;2023-06-22T15:31:06;32.60;55.70
19110;DHT22;9687;50.836;12.060;2023-06-22T15:33:42;32.50;55.80
19110;DHT22;9687;50.836;12.060;2023-06-22T15:36:09;32.50;56.00
19110;DHT22;9687;50.836;12.060;2023-06-22T15:38:36;32.50;56.00
19110;DHT22;9687;50.836;12.060;2023-06-22T15:41:05;32.50;56.20
19110;DHT22;9687;50.836;12.060;2023-06-22T15:43:34;32.40;56.30